createdAt,value
2018-04-30T00:00:23.146Z,8.8
2018-04-30T00:01:22.901Z,8.82
2018-04-30T00:02:22.936Z,8.82
2018-04-30T00:03:22.913Z,8.8
2018-04-30T00:04:22.863Z,8.82
2018-04-30T00:05:22.997Z,8.83
2018-04-30T00:06:22.875Z,8.9
2018-04-30T00:07:22.880Z,8.91
2018-04-30T00:08:22.904Z,8.87
2018-04-30T00:09:22.868Z,8.88
2018-04-30T00:10:23.242Z,8.96
2018-04-30T00:11:22.881Z,8.94
2018-04-30T00:12:22.904Z,8.97
2018-04-30T00:13:22.899Z,8.84
2018-04-30T00:14:22.940Z,8.81
2018-04-30T00:15:22.952Z,8.86
2018-04-30T00:16:22.932Z,8.88
2018-04-30T00:17:22.964Z,8.85
2018-04-30T00:18:23.044Z,8.65
2018-04-30T00:19:22.969Z,8.57
2018-04-30T00:20:22.911Z,8.39
2018-04-30T00:21:22.891Z,8.44
2018-04-30T00:22:22.943Z,8.34
2018-04-30T00:23:23.017Z,8.29
2018-04-30T00:24:22.941Z,8.3
2018-04-30T00:25:22.978Z,8.31
2018-04-30T00:26:22.966Z,8.33
2018-04-30T00:27:22.983Z,8.29
2018-04-30T00:28:22.963Z,8.22
2018-04-30T00:29:22.925Z,8.2
2018-04-30T00:30:22.951Z,8.19
2018-04-30T00:31:22.896Z,8.13
2018-04-30T00:32:22.934Z,8.11
2018-04-30T00:33:23.042Z,8.11
2018-04-30T00:34:22.985Z,8.08
2018-04-30T00:35:22.958Z,8.09
2018-04-30T00:36:22.945Z,8.09
2018-04-30T00:37:22.928Z,8.06
2018-04-30T00:38:22.923Z,8.06
2018-04-30T00:39:23.024Z,8.11
2018-04-30T00:40:23.022Z,8.04
2018-04-30T00:41:22.899Z,8.07
2018-04-30T00:42:22.928Z,8.09
2018-04-30T00:43:22.926Z,8.06
2018-04-30T00:44:22.976Z,8.12
2018-04-30T00:45:22.921Z,8.11
2018-04-30T00:46:22.917Z,8.17
2018-04-30T00:47:22.898Z,8.1
2018-04-30T00:48:22.918Z,8.12
2018-04-30T00:49:22.988Z,8.12
2018-04-30T00:50:22.948Z,8.19
2018-04-30T00:51:22.920Z,8.07
2018-04-30T00:52:22.908Z,8.05
2018-04-30T00:53:23.006Z,8.07
2018-04-30T00:54:22.947Z,8
2018-04-30T00:55:22.914Z,7.96
2018-04-30T00:56:22.963Z,8.01
2018-04-30T00:57:22.926Z,8.03
2018-04-30T00:58:23.071Z,7.9
2018-04-30T00:59:22.871Z,7.89
2018-04-30T01:00:22.853Z,7.86
2018-04-30T01:01:22.908Z,7.88
2018-04-30T01:02:22.925Z,7.89
2018-04-30T01:03:23.243Z,7.93
2018-04-30T01:04:22.932Z,7.9
2018-04-30T01:05:22.871Z,7.87
2018-04-30T01:06:23.092Z,7.8
2018-04-30T01:07:23.031Z,7.8
2018-04-30T01:08:22.892Z,7.67
2018-04-30T01:09:22.911Z,7.65
2018-04-30T01:10:22.944Z,7.64
2018-04-30T01:11:22.947Z,7.67
2018-04-30T01:12:22.889Z,7.71
2018-04-30T01:13:22.900Z,7.69
2018-04-30T01:14:22.892Z,7.66
2018-04-30T01:15:22.914Z,7.62
2018-04-30T01:16:22.854Z,7.6
2018-04-30T01:17:22.852Z,7.51
2018-04-30T01:18:22.905Z,7.45
2018-04-30T01:19:22.939Z,7.49
2018-04-30T01:20:22.915Z,7.49
2018-04-30T01:21:22.926Z,7.46
2018-04-30T01:22:22.972Z,7.43
2018-04-30T01:23:22.969Z,7.43
2018-04-30T01:24:22.894Z,7.47
2018-04-30T01:25:22.905Z,7.43
2018-04-30T01:26:22.883Z,7.4
2018-04-30T01:27:22.854Z,7.42
2018-04-30T01:28:22.916Z,7.41
2018-04-30T01:29:22.888Z,7.42
2018-04-30T01:30:22.884Z,7.44
2018-04-30T01:31:22.957Z,7.44
2018-04-30T01:32:22.861Z,7.44
2018-04-30T01:33:22.970Z,7.43
2018-04-30T01:34:22.854Z,7.44
2018-04-30T01:35:22.841Z,7.47
2018-04-30T01:36:22.941Z,7.44
2018-04-30T01:37:22.906Z,7.47
2018-04-30T01:38:22.926Z,7.46
2018-04-30T01:39:23.017Z,7.5
2018-04-30T01:40:22.876Z,7.46
2018-04-30T01:41:23.278Z,7.46
2018-04-30T01:42:22.896Z,7.46
2018-04-30T01:43:22.878Z,7.45
2018-04-30T01:44:22.940Z,7.46
2018-04-30T01:45:22.932Z,7.53
2018-04-30T01:46:22.908Z,7.52
2018-04-30T01:47:23.037Z,7.48
2018-04-30T01:48:22.908Z,7.5
2018-04-30T01:49:22.892Z,7.51
2018-04-30T01:50:22.910Z,7.52
2018-04-30T01:51:22.906Z,7.55
2018-04-30T01:52:22.977Z,7.57
2018-04-30T01:53:23.009Z,7.56
2018-04-30T01:54:22.922Z,7.54
2018-04-30T01:55:22.948Z,7.58
2018-04-30T01:56:23.024Z,7.53
2018-04-30T01:57:22.908Z,7.56
2018-04-30T01:58:22.914Z,7.55
2018-04-30T01:59:22.871Z,7.57
2018-04-30T02:00:22.878Z,7.55
2018-04-30T02:01:22.888Z,7.57
2018-04-30T02:02:22.894Z,7.53
2018-04-30T02:03:22.983Z,7.55
2018-04-30T02:04:22.931Z,7.57
2018-04-30T02:05:23.079Z,7.6
2018-04-30T02:06:22.877Z,7.6
2018-04-30T02:07:22.873Z,7.61
2018-04-30T02:08:22.894Z,7.61
2018-04-30T02:09:22.921Z,7.65
2018-04-30T02:10:22.923Z,7.55
2018-04-30T02:11:22.994Z,7.56
2018-04-30T02:12:22.874Z,7.55
2018-04-30T02:13:22.908Z,7.58
2018-04-30T02:14:22.913Z,7.54
2018-04-30T02:15:22.910Z,7.56
2018-04-30T02:16:23.006Z,7.57
2018-04-30T02:17:22.899Z,7.57
2018-04-30T02:18:22.902Z,7.59
2018-04-30T02:19:22.938Z,7.61
2018-04-30T02:20:22.852Z,7.61
2018-04-30T02:21:22.894Z,7.62
2018-04-30T02:22:22.888Z,7.6
2018-04-30T02:23:22.912Z,7.62
2018-04-30T02:24:22.915Z,7.59
2018-04-30T02:25:22.925Z,7.56
2018-04-30T02:26:22.865Z,7.57
2018-04-30T02:27:22.915Z,7.59
2018-04-30T02:28:22.931Z,7.59
2018-04-30T02:29:22.951Z,7.62
2018-04-30T02:30:22.933Z,7.62
2018-04-30T02:31:22.927Z,7.65
2018-04-30T02:32:22.903Z,7.67
2018-04-30T02:33:22.884Z,7.68
2018-04-30T02:34:22.972Z,7.65
2018-04-30T02:35:22.924Z,7.67
2018-04-30T02:36:22.927Z,7.67
2018-04-30T02:37:22.921Z,7.63
2018-04-30T02:38:22.953Z,7.61
2018-04-30T02:39:22.913Z,7.66
2018-04-30T02:40:22.982Z,7.59
2018-04-30T02:41:22.905Z,7.6
2018-04-30T02:42:22.905Z,7.63
2018-04-30T02:43:22.929Z,7.66
2018-04-30T02:44:23.025Z,7.65
2018-04-30T02:45:22.966Z,7.63
2018-04-30T02:46:22.960Z,7.64
2018-04-30T02:47:22.892Z,7.62
2018-04-30T02:48:22.943Z,7.61
2018-04-30T02:49:22.955Z,7.68
2018-04-30T02:50:23.097Z,7.64
2018-04-30T02:51:22.953Z,7.63
2018-04-30T02:52:22.950Z,7.62
2018-04-30T02:53:22.934Z,7.55
2018-04-30T02:54:23.012Z,7.46
2018-04-30T02:55:22.978Z,7.48
2018-04-30T02:56:22.908Z,7.49
2018-04-30T02:57:22.919Z,7.43
2018-04-30T02:58:22.952Z,7.41
2018-04-30T02:59:22.949Z,7.43
2018-04-30T03:00:22.968Z,7.45
2018-04-30T03:01:23.021Z,7.46
2018-04-30T03:02:22.950Z,7.41
2018-04-30T03:03:22.936Z,7.41
2018-04-30T03:04:22.942Z,7.44
2018-04-30T03:05:22.987Z,7.46
2018-04-30T03:06:22.985Z,7.48
2018-04-30T03:07:23.062Z,7.49
2018-04-30T03:08:22.947Z,7.45
2018-04-30T03:09:22.930Z,7.48
2018-04-30T03:10:22.975Z,7.44
2018-04-30T03:11:22.947Z,7.48
2018-04-30T03:12:22.963Z,7.47
2018-04-30T03:13:22.964Z,7.49
2018-04-30T03:14:22.909Z,7.49
2018-04-30T03:15:22.988Z,7.46
2018-04-30T03:16:22.957Z,7.45
2018-04-30T03:17:22.957Z,7.45
2018-04-30T03:18:22.980Z,7.5
2018-04-30T03:19:23.045Z,7.52
2018-04-30T03:20:23.232Z,7.53
2018-04-30T03:21:22.998Z,7.48
2018-04-30T03:22:22.936Z,7.49
2018-04-30T03:23:22.952Z,7.54
2018-04-30T03:24:22.971Z,7.59
2018-04-30T03:25:22.930Z,7.66
2018-04-30T03:26:22.967Z,7.65
2018-04-30T03:27:23.359Z,7.55
2018-04-30T03:28:22.933Z,7.54
2018-04-30T03:29:22.990Z,7.55
2018-04-30T03:30:22.960Z,7.57
2018-04-30T03:31:22.933Z,7.59
2018-04-30T03:32:22.941Z,7.55
2018-04-30T03:33:22.976Z,7.58
2018-04-30T03:34:22.951Z,7.54
2018-04-30T03:35:22.988Z,7.57
2018-04-30T03:36:22.923Z,7.59
2018-04-30T03:37:22.962Z,7.6
2018-04-30T03:38:22.897Z,7.63
2018-04-30T03:39:22.993Z,7.63
2018-04-30T03:40:22.911Z,7.65
2018-04-30T03:41:22.924Z,7.69
2018-04-30T03:42:22.922Z,7.68
2018-04-30T03:43:22.913Z,7.7
2018-04-30T03:44:22.915Z,7.67
2018-04-30T03:45:22.937Z,7.71
2018-04-30T03:46:22.921Z,7.71
2018-04-30T03:47:22.908Z,7.7
2018-04-30T03:48:23.213Z,7.72
2018-04-30T03:49:22.915Z,7.7
2018-04-30T03:50:22.932Z,7.63
2018-04-30T03:51:22.911Z,7.68
2018-04-30T03:52:22.974Z,7.69
2018-04-30T03:53:23.142Z,7.72
2018-04-30T03:54:22.912Z,7.76
2018-04-30T03:55:23.033Z,7.79
2018-04-30T03:56:22.909Z,7.76
2018-04-30T03:57:22.906Z,7.83
2018-04-30T03:58:22.987Z,7.86
2018-04-30T03:59:23.049Z,7.92
2018-04-30T04:00:22.989Z,7.97
2018-04-30T04:01:22.984Z,8.03
2018-04-30T04:02:23.012Z,8.02
2018-04-30T04:03:22.966Z,8.03
2018-04-30T04:04:23.119Z,8.13
2018-04-30T04:05:22.935Z,8.15
2018-04-30T04:06:22.979Z,8.26
2018-04-30T04:07:22.922Z,8.31
2018-04-30T04:08:22.951Z,8.28
2018-04-30T04:09:22.922Z,8.27
2018-04-30T04:10:22.922Z,8.38
2018-04-30T04:11:22.950Z,8.45
2018-04-30T04:12:22.911Z,8.34
2018-04-30T04:13:23.045Z,8.47
2018-04-30T04:14:22.946Z,8.49
2018-04-30T04:15:22.951Z,8.6
2018-04-30T04:16:22.927Z,8.67
2018-04-30T04:17:22.995Z,8.62
2018-04-30T04:18:22.950Z,8.71
2018-04-30T04:19:23.052Z,8.79
2018-04-30T04:20:23.031Z,8.69
2018-04-30T04:21:22.923Z,8.66
2018-04-30T04:22:22.970Z,8.62
2018-04-30T04:23:22.943Z,8.64
2018-04-30T04:24:22.991Z,8.81
2018-04-30T04:25:22.990Z,8.84
2018-04-30T04:26:22.933Z,8.84
2018-04-30T04:27:23.002Z,8.89
2018-04-30T04:28:23.079Z,8.83
2018-04-30T04:29:22.951Z,8.72
2018-04-30T04:30:23.041Z,8.74
2018-04-30T04:31:22.989Z,8.84
2018-04-30T04:32:23.053Z,8.8
2018-04-30T04:33:22.967Z,8.77
2018-04-30T04:34:22.948Z,8.66
2018-04-30T04:35:22.916Z,8.79
2018-04-30T04:36:23.078Z,8.75
2018-04-30T04:37:22.906Z,8.68
2018-04-30T04:38:22.992Z,8.72
2018-04-30T04:39:23.175Z,8.75
2018-04-30T04:40:22.963Z,8.62
2018-04-30T04:41:23.011Z,8.81
2018-04-30T04:42:22.926Z,8.77
2018-04-30T04:43:22.950Z,8.71
2018-04-30T04:44:23.005Z,8.61
2018-04-30T04:45:22.970Z,8.9
2018-04-30T04:46:22.964Z,8.79
2018-04-30T04:47:23.236Z,8.84
2018-04-30T04:48:22.972Z,8.88
2018-04-30T04:49:22.946Z,8.73
2018-04-30T04:50:23.004Z,8.88
2018-04-30T04:51:22.969Z,8.84
2018-04-30T04:52:23.030Z,8.72
2018-04-30T04:53:22.979Z,8.67
2018-04-30T04:54:22.951Z,8.81
2018-04-30T04:55:22.964Z,8.81
2018-04-30T04:56:22.984Z,8.73
2018-04-30T04:57:22.968Z,8.79
2018-04-30T04:58:22.959Z,8.81
2018-04-30T04:59:22.947Z,8.83
2018-04-30T05:00:22.972Z,8.85
2018-04-30T05:01:22.945Z,8.74
2018-04-30T05:02:23.494Z,8.8
2018-04-30T05:03:22.945Z,8.69
2018-04-30T05:04:23.119Z,8.72
2018-04-30T05:05:22.980Z,8.61
2018-04-30T05:06:23.029Z,8.59
2018-04-30T05:07:23.000Z,8.6
2018-04-30T05:08:22.985Z,8.51
2018-04-30T05:09:22.992Z,8.47
2018-04-30T05:10:23.004Z,8.56
2018-04-30T05:11:22.941Z,8.61
2018-04-30T05:12:22.983Z,8.64
2018-04-30T05:13:22.935Z,8.62
2018-04-30T05:14:22.974Z,8.54
2018-04-30T05:15:23.030Z,8.57
2018-04-30T05:16:23.007Z,8.53
2018-04-30T05:17:22.990Z,8.49
2018-04-30T05:18:23.121Z,8.51
2018-04-30T05:19:22.995Z,8.53
2018-04-30T05:20:22.985Z,8.55
2018-04-30T05:21:22.993Z,8.59
2018-04-30T05:22:23.018Z,8.56
2018-04-30T05:23:23.337Z,8.5
2018-04-30T05:24:23.065Z,8.47
2018-04-30T05:25:23.069Z,8.47
2018-04-30T05:26:23.007Z,8.44
2018-04-30T05:27:23.020Z,8.48
2018-04-30T05:28:23.029Z,8.49
2018-04-30T05:29:22.954Z,8.5
2018-04-30T05:30:23.008Z,8.43
2018-04-30T05:31:23.045Z,8.46
2018-04-30T05:32:23.004Z,8.37
2018-04-30T05:33:22.987Z,8.36
2018-04-30T05:34:23.006Z,8.34
2018-04-30T05:35:23.021Z,8.25
2018-04-30T05:36:22.993Z,8.25
2018-04-30T05:37:23.006Z,8.23
2018-04-30T05:38:22.996Z,8.18
2018-04-30T05:39:23.022Z,8.13
2018-04-30T05:40:22.987Z,8.13
2018-04-30T05:41:23.013Z,8.24
2018-04-30T05:42:23.033Z,8.16
2018-04-30T05:43:22.990Z,8.11
2018-04-30T05:44:23.376Z,8.1
2018-04-30T05:45:23.038Z,8.02
2018-04-30T05:46:22.982Z,8.11
2018-04-30T05:47:22.957Z,7.88
2018-04-30T05:48:23.052Z,7.77
2018-04-30T05:49:23.068Z,7.9
2018-04-30T05:50:22.967Z,8.05
2018-04-30T05:51:22.999Z,8
2018-04-30T05:52:22.969Z,8.01
2018-04-30T05:53:23.013Z,7.8
2018-04-30T05:54:22.971Z,7.86
2018-04-30T05:55:23.024Z,7.92
2018-04-30T05:56:22.967Z,8.04
2018-04-30T05:57:23.013Z,8.23
2018-04-30T05:58:23.002Z,8.12
2018-04-30T05:59:22.983Z,8.06
2018-04-30T06:00:23.065Z,8.08
2018-04-30T06:01:23.032Z,8.14
2018-04-30T06:02:23.101Z,8.02
2018-04-30T06:03:23.010Z,8.01
2018-04-30T06:04:23.419Z,8.04
2018-04-30T06:05:23.116Z,8
2018-04-30T06:06:23.038Z,7.94
2018-04-30T06:07:22.999Z,7.9
2018-04-30T06:08:22.997Z,7.96
2018-04-30T06:09:23.023Z,7.99
2018-04-30T06:10:23.028Z,8.09
2018-04-30T06:11:22.981Z,7.97
2018-04-30T06:12:23.003Z,7.95
2018-04-30T06:13:23.021Z,8
2018-04-30T06:14:23.017Z,7.97
2018-04-30T06:15:23.017Z,8.09
2018-04-30T06:16:22.970Z,7.96
2018-04-30T06:17:23.317Z,7.97
2018-04-30T06:18:22.980Z,8.07
2018-04-30T06:19:22.984Z,7.95
2018-04-30T06:20:22.995Z,8.09
2018-04-30T06:21:23.020Z,8.05
2018-04-30T06:22:23.051Z,8
2018-04-30T06:23:22.998Z,8.07
2018-04-30T06:24:23.028Z,8.02
2018-04-30T06:25:22.977Z,8.08
2018-04-30T06:26:23.021Z,8.07
2018-04-30T06:27:23.014Z,8.06
2018-04-30T06:28:23.013Z,8.06
2018-04-30T06:29:22.987Z,7.96
2018-04-30T06:30:23.027Z,7.91
2018-04-30T06:31:23.038Z,7.97
2018-04-30T06:32:24.441Z,7.94
2018-04-30T06:33:23.012Z,7.92
2018-04-30T06:34:22.982Z,7.93
2018-04-30T06:35:23.036Z,7.97
2018-04-30T06:36:22.981Z,7.89
2018-04-30T06:37:23.073Z,7.94
2018-04-30T06:38:23.341Z,7.95
2018-04-30T06:39:23.052Z,7.96
2018-04-30T06:40:22.994Z,8.03
2018-04-30T06:41:23.005Z,7.98
2018-04-30T06:42:23.045Z,8.02
2018-04-30T06:43:23.070Z,8
2018-04-30T06:44:23.088Z,7.98
2018-04-30T06:45:23.034Z,7.99
2018-04-30T06:46:23.046Z,8.01
2018-04-30T06:47:23.005Z,7.99
2018-04-30T06:48:23.014Z,8.07
2018-04-30T06:49:23.157Z,8.04
2018-04-30T06:50:23.107Z,8.06
2018-04-30T06:51:23.005Z,8
2018-04-30T06:52:23.076Z,7.95
2018-04-30T06:53:23.162Z,7.88
2018-04-30T06:54:23.054Z,8
2018-04-30T06:55:23.086Z,8
2018-04-30T06:56:22.989Z,7.89
2018-04-30T06:57:22.990Z,7.97
2018-04-30T06:58:23.013Z,7.97
2018-04-30T06:59:23.021Z,8.11
2018-04-30T07:00:23.582Z,8.03
2018-04-30T07:01:23.012Z,8.06
2018-04-30T07:02:23.148Z,8.11
2018-04-30T07:03:23.014Z,8.12
2018-04-30T07:04:23.002Z,8.14
2018-04-30T07:05:23.153Z,8
2018-04-30T07:06:23.001Z,7.98
2018-04-30T07:07:23.046Z,7.97
2018-04-30T07:08:22.990Z,8
2018-04-30T07:09:23.634Z,7.96
2018-04-30T07:10:23.102Z,7.97
2018-04-30T07:11:23.057Z,8.01
2018-04-30T07:12:23.005Z,7.96
2018-04-30T07:13:23.026Z,7.88
2018-04-30T07:14:23.050Z,8.02
2018-04-30T07:15:23.027Z,7.86
2018-04-30T07:16:23.009Z,7.98
2018-04-30T07:17:23.314Z,7.99
2018-04-30T07:18:23.038Z,8.14
2018-04-30T07:19:23.055Z,8.1
2018-04-30T07:20:23.008Z,8.04
2018-04-30T07:21:23.021Z,7.95
2018-04-30T07:22:23.030Z,7.9
2018-04-30T07:23:23.052Z,8.02
2018-04-30T07:24:23.006Z,8.13
2018-04-30T07:25:23.023Z,8.15
2018-04-30T07:26:23.100Z,8.05
2018-04-30T07:27:23.030Z,8.09
2018-04-30T07:28:23.053Z,8
2018-04-30T07:29:23.045Z,7.95
2018-04-30T07:30:23.012Z,7.69
2018-04-30T07:31:23.050Z,7.79
2018-04-30T07:32:23.013Z,7.79
2018-04-30T07:33:23.040Z,7.73
2018-04-30T07:34:23.021Z,7.8
2018-04-30T07:35:23.074Z,7.82
2018-04-30T07:36:23.145Z,7.86
2018-04-30T07:37:23.049Z,8.01
2018-04-30T07:38:23.087Z,7.99
2018-04-30T07:39:23.035Z,7.96
2018-04-30T07:40:23.027Z,7.83
2018-04-30T07:41:23.011Z,7.84
2018-04-30T07:42:23.056Z,7.9
2018-04-30T07:43:23.108Z,7.74
2018-04-30T07:44:23.043Z,7.84
2018-04-30T07:45:23.059Z,7.78
2018-04-30T07:46:23.071Z,7.8
2018-04-30T07:47:23.122Z,7.92
2018-04-30T07:48:23.132Z,7.85
2018-04-30T07:49:23.239Z,7.87
2018-04-30T07:50:23.310Z,7.99
2018-04-30T07:51:23.143Z,7.8
2018-04-30T07:52:23.046Z,7.72
2018-04-30T07:53:23.250Z,7.83
2018-04-30T07:54:23.050Z,7.89
2018-04-30T07:55:23.109Z,7.87
2018-04-30T07:56:23.146Z,7.5
2018-04-30T07:57:23.877Z,7.65
2018-04-30T07:58:23.013Z,7.6
2018-04-30T07:59:23.088Z,7.62
2018-04-30T08:00:23.072Z,7.65
2018-04-30T08:01:23.125Z,7.69
2018-04-30T08:02:23.072Z,7.72
2018-04-30T08:03:23.028Z,7.65
2018-04-30T08:04:23.042Z,7.77
2018-04-30T08:05:23.064Z,7.74
2018-04-30T08:06:23.048Z,7.61
2018-04-30T08:07:23.066Z,7.7
2018-04-30T08:08:23.059Z,7.55
2018-04-30T08:09:23.021Z,7.63
2018-04-30T08:10:23.039Z,7.72
2018-04-30T08:11:23.120Z,7.52
2018-04-30T08:12:23.081Z,7.49
2018-04-30T08:13:23.023Z,7.52
2018-04-30T08:14:23.052Z,7.46
2018-04-30T08:15:23.040Z,7.51
2018-04-30T08:16:23.120Z,7.5
2018-04-30T08:17:23.077Z,7.68
2018-04-30T08:18:23.073Z,7.77
2018-04-30T08:19:23.059Z,7.77
2018-04-30T08:20:23.058Z,7.94
2018-04-30T08:21:23.121Z,7.74
2018-04-30T08:22:23.048Z,7.73
2018-04-30T08:23:23.102Z,7.61
2018-04-30T08:24:23.104Z,7.71
2018-04-30T08:25:23.110Z,7.64
2018-04-30T08:26:23.252Z,7.53
2018-04-30T08:27:23.064Z,7.81
2018-04-30T08:28:23.021Z,7.67
2018-04-30T08:29:23.026Z,7.66
2018-04-30T08:30:23.047Z,7.69
2018-04-30T08:31:23.097Z,7.56
2018-04-30T08:32:23.053Z,7.56
2018-04-30T08:33:23.053Z,7.62
2018-04-30T08:34:23.090Z,7.55
2018-04-30T08:35:23.109Z,7.46
2018-04-30T08:36:23.053Z,7.59
2018-04-30T08:37:23.056Z,7.51
2018-04-30T08:38:23.060Z,7.35
2018-04-30T08:39:23.108Z,7.33
2018-04-30T08:40:23.085Z,7.43
2018-04-30T08:41:23.052Z,7.37
2018-04-30T08:42:23.055Z,7.59
2018-04-30T08:43:23.074Z,7.69
2018-04-30T08:44:23.479Z,7.66
2018-04-30T08:45:23.256Z,7.65
2018-04-30T08:46:23.640Z,7.45
2018-04-30T08:47:23.736Z,7.47
2018-04-30T08:48:23.468Z,7.45
2018-04-30T08:49:23.802Z,7.37
2018-04-30T08:50:24.617Z,7.34
2018-04-30T08:51:23.800Z,7.24
2018-04-30T08:52:23.045Z,7.42
2018-04-30T08:53:23.133Z,7.28
2018-04-30T08:54:23.046Z,7.36
2018-04-30T08:55:23.052Z,7.27
2018-04-30T08:56:23.790Z,7.38
2018-04-30T08:57:23.083Z,7.25
2018-04-30T08:58:23.085Z,7.15
2018-04-30T08:59:23.074Z,7.28
2018-04-30T09:00:23.996Z,7.27
2018-04-30T09:01:23.413Z,7.39
2018-04-30T09:02:23.131Z,7.53
2018-04-30T09:03:23.133Z,7.49
2018-04-30T09:04:23.099Z,7.55
2018-04-30T09:05:23.082Z,7.46
2018-04-30T09:06:23.094Z,7.38
2018-04-30T09:07:23.055Z,7.42
2018-04-30T09:08:23.058Z,7.54
2018-04-30T09:09:23.085Z,7.43
2018-04-30T09:10:23.068Z,7.34
2018-04-30T09:11:23.250Z,7.41
2018-04-30T09:12:23.081Z,7.38
2018-04-30T09:13:23.060Z,7.26
2018-04-30T09:14:23.066Z,7.28
2018-04-30T09:15:23.208Z,7.41
2018-04-30T09:16:26.037Z,7.45
2018-04-30T09:17:23.068Z,7.33
2018-04-30T09:18:24.468Z,7.22
2018-04-30T09:19:23.095Z,7.32
2018-04-30T09:20:23.218Z,7.28
2018-04-30T09:21:23.084Z,7.36
2018-04-30T09:22:23.111Z,7.36
2018-04-30T09:23:23.914Z,7.4
2018-04-30T09:24:23.099Z,7.26
2018-04-30T09:25:23.122Z,7.35
2018-04-30T09:26:23.149Z,7.41
2018-04-30T09:27:23.098Z,7.48
2018-04-30T09:28:23.122Z,7.39
2018-04-30T09:29:23.104Z,7.37
2018-04-30T09:30:23.173Z,7.39
2018-04-30T09:31:23.115Z,7.44
2018-04-30T09:32:23.145Z,7.33
2018-04-30T09:33:23.106Z,7.07
2018-04-30T09:34:23.107Z,7.28
2018-04-30T09:35:23.274Z,7.4
2018-04-30T09:36:23.181Z,7.4
2018-04-30T09:37:23.123Z,7.32
2018-04-30T09:38:23.126Z,7.31
2018-04-30T09:39:23.098Z,7.23
2018-04-30T09:40:23.087Z,7.24
2018-04-30T09:41:23.127Z,7.17
2018-04-30T09:42:23.092Z,7.27
2018-04-30T09:43:23.172Z,7.31
2018-04-30T09:44:23.081Z,7.18
2018-04-30T09:45:23.103Z,7.14
2018-04-30T09:46:23.127Z,7.06
2018-04-30T09:47:23.112Z,7.23
2018-04-30T09:48:23.158Z,7.31
2018-04-30T09:49:23.075Z,7.37
2018-04-30T09:50:23.085Z,7.5
2018-04-30T09:51:23.077Z,7.54
2018-04-30T09:52:23.125Z,7.39
2018-04-30T09:53:23.099Z,7.37
2018-04-30T09:54:23.131Z,7.35
2018-04-30T09:55:23.167Z,7.31
2018-04-30T09:56:23.083Z,7.35
2018-04-30T09:57:23.126Z,7.3
2018-04-30T09:58:23.088Z,7.17
2018-04-30T09:59:23.217Z,7.19
2018-04-30T10:00:23.123Z,7.11
2018-04-30T10:01:23.089Z,7.23
2018-04-30T10:02:23.096Z,7.16
2018-04-30T10:03:23.090Z,7.22
2018-04-30T10:04:23.088Z,7.19
2018-04-30T10:05:23.138Z,7.19
2018-04-30T10:06:23.270Z,7.17
2018-04-30T10:07:23.735Z,6.97
2018-04-30T10:08:23.089Z,7.25
2018-04-30T10:09:23.116Z,7.31
2018-04-30T10:10:23.102Z,6.99
2018-04-30T10:11:23.121Z,6.91
2018-04-30T10:12:23.197Z,7.04
2018-04-30T10:13:23.089Z,7.19
2018-04-30T10:14:23.202Z,7.19
2018-04-30T10:15:23.114Z,6.97
2018-04-30T10:16:23.119Z,7
2018-04-30T10:17:23.256Z,7.11
2018-04-30T10:18:23.150Z,7.09
2018-04-30T10:19:23.160Z,7.23
2018-04-30T10:20:23.096Z,7.29
2018-04-30T10:21:23.090Z,7.42
2018-04-30T10:22:23.129Z,7.18
2018-04-30T10:23:23.613Z,7.16
2018-04-30T10:24:23.107Z,7.06
2018-04-30T10:25:23.261Z,7.02
2018-04-30T10:26:23.147Z,6.97
2018-04-30T10:27:23.121Z,6.8
2018-04-30T10:28:23.112Z,7.02
2018-04-30T10:29:23.132Z,7.04
2018-04-30T10:30:23.123Z,6.74
2018-04-30T10:31:23.174Z,6.79
2018-04-30T10:32:23.110Z,6.79
2018-04-30T10:33:23.159Z,6.81
2018-04-30T10:34:23.166Z,6.66
2018-04-30T10:35:23.151Z,6.87
2018-04-30T10:36:23.171Z,6.8
2018-04-30T10:37:23.182Z,7.04
2018-04-30T10:38:23.171Z,6.89
2018-04-30T10:39:23.159Z,6.87
2018-04-30T10:40:23.199Z,6.87
2018-04-30T10:41:23.141Z,6.84
2018-04-30T10:42:23.204Z,6.93
2018-04-30T10:43:23.259Z,6.87
2018-04-30T10:44:23.644Z,7.03
2018-04-30T10:45:23.187Z,7.14
2018-04-30T10:46:23.190Z,6.96
2018-04-30T10:47:23.163Z,7.12
2018-04-30T10:48:23.145Z,7.25
2018-04-30T10:49:23.151Z,7.12
2018-04-30T10:50:23.165Z,7.12
2018-04-30T10:51:23.241Z,7.14
2018-04-30T10:52:23.187Z,6.98
2018-04-30T10:53:23.749Z,7.05
2018-04-30T10:54:23.786Z,7.05
2018-04-30T10:55:23.129Z,7.07
2018-04-30T10:56:24.327Z,7.09
2018-04-30T10:57:23.159Z,6.99
2018-04-30T10:58:23.164Z,6.99
2018-04-30T10:59:23.132Z,6.89
2018-04-30T11:00:23.142Z,6.83
2018-04-30T11:01:23.126Z,6.58
2018-04-30T11:02:23.153Z,6.65
2018-04-30T11:03:23.286Z,6.81
2018-04-30T11:04:23.129Z,6.69
2018-04-30T11:05:23.266Z,6.68
2018-04-30T11:06:23.143Z,6.73
2018-04-30T11:07:23.160Z,6.8
2018-04-30T11:08:23.208Z,6.77
2018-04-30T11:09:23.148Z,6.97
2018-04-30T11:10:23.143Z,7.05
2018-04-30T11:11:23.132Z,6.94
2018-04-30T11:12:23.570Z,7.09
2018-04-30T11:13:23.140Z,7.15
2018-04-30T11:14:23.173Z,7.04
2018-04-30T11:15:23.152Z,7.11
2018-04-30T11:16:23.157Z,7.2
2018-04-30T11:17:23.158Z,7.25
2018-04-30T11:18:23.317Z,7.01
2018-04-30T11:19:23.927Z,7.03
2018-04-30T11:20:23.248Z,6.94
2018-04-30T11:21:24.109Z,6.87
2018-04-30T11:22:23.164Z,6.95
2018-04-30T11:23:23.179Z,6.93
2018-04-30T11:24:23.276Z,6.94
2018-04-30T11:25:23.287Z,6.98
2018-04-30T11:26:23.154Z,7.26
2018-04-30T11:27:23.130Z,7.63
2018-04-30T11:28:25.401Z,7.98
2018-04-30T11:29:23.169Z,7.8
2018-04-30T11:30:23.306Z,8.07
2018-04-30T11:31:23.574Z,8.16
2018-04-30T11:32:23.177Z,7.77
2018-04-30T11:33:23.186Z,7.53
2018-04-30T11:34:23.201Z,7.72
2018-04-30T11:35:23.424Z,7.39
2018-04-30T11:36:25.043Z,7.31
2018-04-30T11:37:23.226Z,7.29
2018-04-30T11:38:23.205Z,7.06
2018-04-30T11:39:23.288Z,7.27
2018-04-30T11:40:23.235Z,7.41
2018-04-30T11:41:23.259Z,7.32
2018-04-30T11:42:23.225Z,7.28
2018-04-30T11:43:23.183Z,7.03
2018-04-30T11:44:23.181Z,7.16
2018-04-30T11:45:24.332Z,7.12
2018-04-30T11:46:23.667Z,6.93
2018-04-30T11:47:23.218Z,7.17
2018-04-30T11:48:23.236Z,7.1
2018-04-30T11:49:23.229Z,7.13
2018-04-30T11:50:23.209Z,6.77
2018-04-30T11:51:23.238Z,6.86
2018-04-30T11:52:23.197Z,6.87
2018-04-30T11:53:23.256Z,6.79
2018-04-30T11:54:24.068Z,7.06
2018-04-30T11:55:23.247Z,6.75
2018-04-30T11:56:23.243Z,6.65
2018-04-30T11:57:23.284Z,6.92
2018-04-30T11:58:28.831Z,6.94
2018-04-30T11:59:23.199Z,6.92
2018-04-30T12:00:23.476Z,6.72
2018-04-30T12:01:24.231Z,6.84
2018-04-30T12:02:24.763Z,7.01
2018-04-30T12:03:23.267Z,6.79
2018-04-30T12:04:23.185Z,6.91
2018-04-30T12:05:23.246Z,6.91
2018-04-30T12:06:23.232Z,6.92
2018-04-30T12:07:23.215Z,7.05
2018-04-30T12:08:23.219Z,6.88
2018-04-30T12:09:23.222Z,6.9
2018-04-30T12:10:23.225Z,6.81
2018-04-30T12:11:23.249Z,6.79
2018-04-30T12:12:23.205Z,6.65
2018-04-30T12:13:23.240Z,6.5
2018-04-30T12:14:23.686Z,6.63
2018-04-30T12:15:23.232Z,6.72
2018-04-30T12:16:23.312Z,6.78
2018-04-30T12:17:23.263Z,6.8
2018-04-30T12:18:23.294Z,6.62
2018-04-30T12:19:23.239Z,6.54
2018-04-30T12:20:23.250Z,6.65
2018-04-30T12:21:23.265Z,6.61
2018-04-30T12:22:24.330Z,6.67
2018-04-30T12:23:23.249Z,6.77
2018-04-30T12:24:23.281Z,6.83
2018-04-30T12:25:23.246Z,6.61
2018-04-30T12:26:23.251Z,6.37
2018-04-30T12:27:23.255Z,6.66
2018-04-30T12:28:23.248Z,6.6
2018-04-30T12:29:23.276Z,6.73
2018-04-30T12:30:23.266Z,6.79
2018-04-30T12:31:25.971Z,6.55
2018-04-30T12:32:23.467Z,6.51
2018-04-30T12:33:23.369Z,6.48
2018-04-30T12:34:23.263Z,6.58
2018-04-30T12:35:23.315Z,6.63
2018-04-30T12:36:23.265Z,6.43
2018-04-30T12:37:23.235Z,6.51
2018-04-30T12:38:23.249Z,6.72
2018-04-30T12:39:23.761Z,6.79
2018-04-30T12:40:26.417Z,6.74
2018-04-30T12:41:23.288Z,6.78
2018-04-30T12:42:23.231Z,6.63
2018-04-30T12:43:23.291Z,6.58
2018-04-30T12:44:23.270Z,6.7
2018-04-30T12:45:23.453Z,6.56
2018-04-30T12:46:23.304Z,6.49
2018-04-30T12:47:23.314Z,6.28
2018-04-30T12:48:23.440Z,6.29
2018-04-30T12:49:26.305Z,6.51
2018-04-30T12:50:23.279Z,6.57
2018-04-30T12:51:23.513Z,6.64
2018-04-30T12:52:23.428Z,6.59
2018-04-30T12:53:23.253Z,6.5
2018-04-30T12:54:23.478Z,6.49
2018-04-30T12:55:24.509Z,6.33
2018-04-30T12:56:23.262Z,6.14
2018-04-30T12:57:23.366Z,6.27
2018-04-30T12:58:23.304Z,6.46
2018-04-30T12:59:23.374Z,6.6
2018-04-30T13:00:23.382Z,6.72
2018-04-30T13:01:23.342Z,6.56
2018-04-30T13:02:23.749Z,6.57
2018-04-30T13:03:23.396Z,6.49
2018-04-30T13:04:23.230Z,6.55
2018-04-30T13:05:23.301Z,6.72
2018-04-30T13:06:23.298Z,6.59
2018-04-30T13:07:23.416Z,6.52
2018-04-30T13:08:23.413Z,6.32
2018-04-30T13:09:23.483Z,6.13
2018-04-30T13:10:23.269Z,6.07
2018-04-30T13:11:23.408Z,6.11
2018-04-30T13:12:23.352Z,5.94
2018-04-30T13:13:23.490Z,5.97
2018-04-30T13:14:26.324Z,5.99
2018-04-30T13:15:24.036Z,5.77
2018-04-30T13:16:23.390Z,5.85
2018-04-30T13:17:23.348Z,5.92
2018-04-30T13:18:23.549Z,6.07
2018-04-30T13:19:23.347Z,6.03
2018-04-30T13:20:23.353Z,5.91
2018-04-30T13:21:23.367Z,5.97